Time;durP1;ratioP1;P1;durP2;ratioP2;P2;SDS_P1;SDS_P2;PMS_P1;PMS_P2;Temp;Humidity;BMP_temperature;BMP_pressure;BME280_temperature;BME280_humidity;BME280_pressure;Samples;Min_cycle;Max_cycle;Signal;HPM_P1;HPM_P2
2024/02/25 00:02:14;;;;;;;7.70;4.10;;;4.60;99.90;;;;;;5048371;28;20428;-51
2024/02/25 00:04:39;;;;;;;4.57;3.38;;;4.60;99.90;;;;;;5048349;28;20083;-52
2024/02/25 00:07:05;;;;;;;8.07;3.33;;;4.60;99.90;;;;;;5048606;28;20427;-54
2024/02/25 00:09:30;;;;;;;4.63;3.55;;;4.70;99.90;;;;;;5048351;28;20049;-52
2024/02/25 00:11:55;;;;;;;4.30;3.10;;;4.60;99.90;;;;;;5048570;28;20384;-53
2024/02/25 00:14:28;;;;;;;6.60;3.33;;;4.60;99.90;;;;;;5047772;28;20025;-53
2024/02/25 00:16:54;;;;;;;5.47;3.40;;;4.60;99.90;;;;;;5048840;28;20033;-52
2024/02/25 00:19:19;;;;;;;3.50;2.60;;;4.60;99.90;;;;;;5048585;28;20443;-52
2024/02/25 00:21:45;;;;;;;3.40;2.85;;;4.70;99.90;;;;;;5048100;28;20032;-55
2024/02/25 00:24:10;;;;;;;6.10;3.20;;;4.70;99.90;;;;;;5048394;28;20144;-55
2024/02/25 00:26:36;;;;;;;3.42;2.60;;;4.70;99.90;;;;;;5048608;28;20036;-54
2024/02/25 00:29:02;;;;;;;3.92;2.75;;;4.70;99.90;;;;;;5048542;28;20025;-53
2024/02/25 00:31:27;;;;;;;3.63;3.03;;;4.60;99.90;;;;;;5048303;28;20045;-57
2024/02/25 00:33:53;;;;;;;2.88;2.33;;;4.70;99.90;;;;;;5047213;28;20440;-57
2024/02/25 00:36:18;;;;;;;3.35;2.53;;;4.80;99.90;;;;;;5047745;28;20025;-53
2024/02/25 00:38:43;;;;;;;5.80;3.45;;;4.80;99.90;;;;;;5049990;28;20025;-57
2024/02/25 00:41:09;;;;;;;3.38;2.63;;;4.80;99.90;;;;;;5049162;28;20078;-54
2024/02/25 00:43:35;;;;;;;3.95;2.70;;;4.80;99.90;;;;;;5048383;28;20021;-53
2024/02/25 00:46:00;;;;;;;6.28;2.80;;;4.90;99.90;;;;;;5049102;28;20025;-52
2024/02/25 00:48:26;;;;;;;4.95;2.70;;;4.90;99.90;;;;;;5048255;28;20139;-52
2024/02/25 00:50:51;;;;;;;5.18;3.83;;;4.80;99.90;;;;;;5048445;28;20029;-57
2024/02/25 00:53:17;;;;;;;2.47;2.30;;;4.90;99.90;;;;;;5047935;28;20036;-54
2024/02/25 00:55:43;;;;;;;5.38;2.75;;;4.90;99.90;;;;;;5048215;28;20040;-56
2024/02/25 00:58:08;;;;;;;5.07;2.83;;;4.80;99.90;;;;;;5047638;28;20033;-56
2024/02/25 01:00:34;;;;;;;2.65;2.45;;;4.80;99.90;;;;;;5048309;28;20447;-54
2024/02/25 01:02:59;;;;;;;3.03;2.58;;;4.80;99.90;;;;;;5049466;28;20057;-56
2024/02/25 01:05:25;;;;;;;3.50;2.88;;;4.80;99.90;;;;;;5049739;28;20029;-55
2024/02/25 01:07:51;;;;;;;4.55;2.88;;;4.80;99.90;;;;;;5050047;28;20063;-55
2024/02/25 01:10:16;;;;;;;4.32;2.80;;;4.80;99.90;;;;;;5051273;28;20021;-58
2024/02/25 01:12:42;;;;;;;3.33;2.97;;;4.80;99.90;;;;;;5051148;28;20174;-57
2024/02/25 01:15:08;;;;;;;2.83;2.45;;;4.80;99.90;;;;;;5050961;28;20499;-55
2024/02/25 01:17:33;;;;;;;2.53;2.33;;;4.80;99.90;;;;;;5051200;28;20028;-56
2024/02/25 01:19:59;;;;;;;4.05;2.20;;;4.90;99.90;;;;;;5053207;28;20025;-56
2024/02/25 01:22:24;;;;;;;3.85;2.80;;;4.90;99.90;;;;;;5054638;28;20063;-57
2024/02/25 01:24:50;;;;;;;7.97;3.05;;;4.90;99.90;;;;;;5054448;28;20041;-55
2024/02/25 01:27:15;;;;;;;4.85;3.00;;;5.00;99.90;;;;;;5053011;28;20070;-58
2024/02/25 01:29:41;;;;;;;2.88;2.67;;;5.00;99.90;;;;;;5053002;28;20028;-55
2024/02/25 01:32:06;;;;;;;7.70;3.08;;;5.00;99.90;;;;;;5054193;28;20029;-59
2024/02/25 01:34:32;;;;;;;4.10;2.70;;;5.00;99.90;;;;;;5054156;28;20025;-54
2024/02/25 01:36:57;;;;;;;5.88;2.70;;;5.10;99.90;;;;;;5054042;28;20021;-49
2024/02/25 01:39:23;;;;;;;3.40;2.63;;;5.20;99.90;;;;;;5053998;28;20021;-59
2024/02/25 01:41:53;;;;;;;3.33;2.58;;;5.20;99.90;;;;;;5052895;28;20028;-57
2024/02/25 01:44:19;;;;;;;27.40;13.52;;;5.20;99.90;;;;;;5053926;28;20116;-56
2024/02/25 01:46:45;;;;;;;6.93;2.90;;;5.30;99.90;;;;;;5054219;28;20096;-51
2024/02/25 01:49:14;;;;;;;4.80;2.20;;;5.40;99.90;;;;;;5072229;22;20049;-50
2024/02/25 01:51:40;;;;;;;3.95;2.60;;;5.40;99.90;;;;;;5040483;28;20030;-53
2024/02/25 01:54:06;;;;;;;2.83;2.08;;;5.50;99.90;;;;;;5041242;28;20029;-51
2024/02/25 01:56:34;;;;;;;2.35;2.13;;;5.40;99.90;;;;;;5039361;28;20025;-52
2024/02/25 01:59:01;;;;;;;4.20;2.25;;;5.50;99.90;;;;;;5039641;28;20029;-51
2024/02/25 02:01:26;;;;;;;3.55;2.25;;;5.50;99.90;;;;;;5039185;28;20025;-52
2024/02/25 02:03:52;;;;;;;2.30;2.10;;;5.50;99.90;;;;;;5041277;28;20026;-54
2024/02/25 02:06:18;;;;;;;6.75;2.58;;;5.60;99.90;;;;;;5041402;28;20026;-53
2024/02/25 02:08:43;;;;;;;2.55;2.22;;;5.50;99.90;;;;;;5040686;28;20021;-47
2024/02/25 02:11:19;;;;;;;2.75;2.13;;;5.50;99.90;;;;;;5040481;28;20109;-53
2024/02/25 02:13:45;;;;;;;4.63;2.40;;;5.60;99.90;;;;;;5040248;28;20029;-53
2024/02/25 02:16:12;;;;;;;4.35;1.95;;;5.50;99.90;;;;;;5039542;28;20481;-52
2024/02/25 02:18:42;;;;;;;3.30;2.33;;;5.50;99.90;;;;;;5039758;28;20026;-51
2024/02/25 02:21:09;;;;;;;2.25;1.98;;;5.40;99.90;;;;;;5039565;28;20028;-52
2024/02/25 02:23:35;;;;;;;3.05;2.10;;;5.40;99.90;;;;;;5038702;28;20092;-55
2024/02/25 02:26:01;;;;;;;3.08;1.92;;;5.40;99.90;;;;;;5039707;28;20053;-48
2024/02/25 02:28:26;;;;;;;2.35;1.63;;;5.30;99.90;;;;;;5039937;28;20032;-53
2024/02/25 02:30:52;;;;;;;2.08;1.73;;;5.30;99.90;;;;;;5038721;28;20427;-53
2024/02/25 02:33:17;;;;;;;3.58;1.77;;;5.30;99.90;;;;;;5039957;28;20029;-52
2024/02/25 02:35:43;;;;;;;3.15;2.03;;;5.30;99.90;;;;;;5040416;28;20025;-56
2024/02/25 02:38:12;;;;;;;3.72;2.08;;;5.20;99.90;;;;;;5040533;28;20028;-52
2024/02/25 02:40:38;;;;;;;2.33;1.98;;;5.20;99.90;;;;;;5038201;28;20396;-51
2024/02/25 02:43:04;;;;;;;2.13;1.80;;;5.30;99.90;;;;;;5039631;28;20025;-52
2024/02/25 02:45:32;;;;;;;2.10;2.00;;;5.20;99.90;;;;;;5039670;28;20028;-54
2024/02/25 02:47:58;;;;;;;3.67;2.00;;;5.20;99.90;;;;;;5038700;28;20033;-52
2024/02/25 02:50:23;;;;;;;5.15;1.80;;;5.20;99.90;;;;;;5037271;28;20044;-54
2024/02/25 02:52:49;;;;;;;1.63;1.52;;;5.20;99.90;;;;;;5038511;28;20030;-48
2024/02/25 02:55:14;;;;;;;2.75;1.50;;;5.20;99.90;;;;;;5037332;28;20022;-52
2024/02/25 02:57:40;;;;;;;3.72;2.28;;;5.20;99.90;;;;;;5034200;28;20378;-53
2024/02/25 03:00:07;;;;;;;2.35;2.05;;;5.10;99.90;;;;;;5040023;28;20033;-50
2024/02/25 03:02:33;;;;;;;1.90;1.58;;;5.20;99.90;;;;;;5037082;28;20056;-53
2024/02/25 03:04:59;;;;;;;2.80;2.08;;;5.20;99.90;;;;;;5038120;28;20032;-50
2024/02/25 03:07:26;;;;;;;2.40;1.90;;;5.20;99.90;;;;;;5039161;28;20061;-51
2024/02/25 03:09:51;;;;;;;1.83;1.73;;;5.20;99.90;;;;;;5040535;28;20474;-54
2024/02/25 03:12:17;;;;;;;2.88;1.90;;;5.20;99.90;;;;;;5038779;28;20060;-48
2024/02/25 03:14:43;;;;;;;3.60;2.40;;;5.20;99.90;;;;;;5054797;28;20030;-52
2024/02/25 03:17:08;;;;;;;3.22;2.17;;;5.20;99.90;;;;;;5039345;28;20480;-55
2024/02/25 03:19:34;;;;;;;3.30;2.47;;;5.20;99.90;;;;;;5039545;28;20022;-50
2024/02/25 03:22:00;;;;;;;2.38;2.13;;;5.30;99.90;;;;;;5039516;28;20063;-52
2024/02/25 03:24:25;;;;;;;8.45;2.80;;;5.30;99.90;;;;;;5054680;28;20037;-53
2024/02/25 03:26:51;;;;;;;3.03;2.63;;;5.30;99.90;;;;;;5037661;28;20049;-54
2024/02/25 03:29:17;;;;;;;3.58;2.47;;;5.40;99.90;;;;;;5038979;28;20058;-53
2024/02/25 03:31:43;;;;;;;3.75;3.22;;;5.40;99.90;;;;;;5055673;28;20601;-54
2024/02/25 03:34:09;;;;;;;2.97;2.65;;;5.30;99.90;;;;;;5040610;28;20045;-49
2024/02/25 03:36:35;;;;;;;4.18;3.00;;;5.30;99.90;;;;;;5040265;28;20033;-50
2024/02/25 03:39:01;;;;;;;3.22;2.67;;;5.30;99.90;;;;;;5039541;28;20028;-51
2024/02/25 03:41:27;;;;;;;2.65;2.45;;;5.30;99.90;;;;;;5039180;28;20121;-53
2024/02/25 03:43:52;;;;;;;5.22;3.15;;;5.30;99.90;;;;;;5040699;28;20035;-54
2024/02/25 03:46:18;;;;;;;2.63;2.42;;;5.30;99.90;;;;;;5040236;28;20029;-52
2024/02/25 03:48:43;;;;;;;3.42;2.80;;;5.30;99.90;;;;;;5039795;28;20104;-54
2024/02/25 03:51:09;;;;;;;3.53;2.63;;;5.20;99.90;;;;;;5056069;28;20025;-51
2024/02/25 03:53:34;;;;;;;2.50;2.20;;;5.20;99.90;;;;;;5038534;28;20037;-50
2024/02/25 03:56:00;;;;;;;3.35;2.20;;;5.20;99.90;;;;;;5038044;28;20041;-50
2024/02/25 03:58:26;;;;;;;4.40;2.28;;;5.20;99.90;;;;;;5055067;28;20025;-52
2024/02/25 04:00:51;;;;;;;3.15;2.58;;;5.20;99.90;;;;;;5055472;28;20033;-53
2024/02/25 04:03:17;;;;;;;3.95;2.20;;;5.30;99.90;;;;;;5040578;28;20088;-53
2024/02/25 04:05:42;;;;;;;5.28;2.30;;;5.20;99.90;;;;;;5038987;28;20445;-52
2024/02/25 04:08:07;;;;;;;4.88;2.30;;;5.30;99.90;;;;;;5039816;28;20086;-51
2024/02/25 04:10:33;;;;;;;2.45;2.25;;;5.30;99.90;;;;;;5040032;28;20127;-55
2024/02/25 04:12:59;;;;;;;3.00;1.90;;;5.30;99.90;;;;;;5038413;28;20123;-51
2024/02/25 04:15:24;;;;;;;4.60;2.25;;;5.40;99.90;;;;;;5039741;28;20112;-50
2024/02/25 04:17:50;;;;;;;3.38;2.33;;;5.40;99.90;;;;;;5039334;28;20024;-50
2024/02/25 04:20:16;;;;;;;3.28;2.38;;;5.50;99.90;;;;;;5038417;28;20064;-51
2024/02/25 04:22:42;;;;;;;2.80;1.98;;;5.40;99.90;;;;;;5039796;28;20029;-48
2024/02/25 04:25:09;;;;;;;1.88;1.70;;;5.50;99.90;;;;;;5039982;28;20044;-53
2024/02/25 04:27:35;;;;;;;4.15;2.28;;;5.50;99.90;;;;;;5039239;28;20113;-54
2024/02/25 04:30:00;;;;;;;3.67;1.73;;;5.50;99.90;;;;;;5039593;28;20049;-50
2024/02/25 04:32:26;;;;;;;2.95;2.50;;;5.50;99.90;;;;;;5039448;28;20040;-49
2024/02/25 04:34:51;;;;;;;3.92;2.50;;;5.50;99.90;;;;;;5038985;28;20021;-52
2024/02/25 04:37:17;;;;;;;2.75;2.55;;;5.50;99.90;;;;;;5038667;28;20093;-53
2024/02/25 04:39:42;;;;;;;5.43;2.83;;;5.50;99.90;;;;;;5039674;28;20113;-49
2024/02/25 04:42:08;;;;;;;1.85;1.75;;;5.50;99.90;;;;;;5039716;28;20095;-52
2024/02/25 04:44:33;;;;;;;2.78;1.73;;;5.60;99.90;;;;;;5039312;28;20079;-53
2024/02/25 04:46:59;;;;;;;3.33;2.33;;;5.70;99.90;;;;;;5039326;28;20029;-50
2024/02/25 04:49:24;;;;;;;4.82;2.45;;;5.80;99.90;;;;;;5039488;28;20049;-51
2024/02/25 04:51:50;;;;;;;1.92;1.50;;;5.70;99.90;;;;;;5039741;28;20159;-55
2024/02/25 04:54:16;;;;;;;4.03;2.00;;;5.60;99.90;;;;;;5038812;28;20050;-53
2024/02/25 04:56:42;;;;;;;2.75;1.92;;;5.60;99.90;;;;;;5039326;28;20014;-51
2024/02/25 04:59:11;;;;;;;2.88;2.30;;;5.60;99.90;;;;;;5040134;28;20117;-52
2024/02/25 05:01:47;;;;;;;2.13;1.83;;;5.60;99.90;;;;;;5040714;28;20026;-51
2024/02/25 05:04:12;;;;;;;3.42;2.38;;;5.60;99.90;;;;;;5039626;28;20032;-54
2024/02/25 05:06:38;;;;;;;2.88;2.20;;;5.60;99.90;;;;;;5041007;28;20518;-49
2024/02/25 05:09:04;;;;;;;2.13;1.85;;;5.60;99.90;;;;;;5038805;28;20032;-53
2024/02/25 05:11:31;;;;;;;2.58;2.17;;;5.60;99.90;;;;;;5040611;28;20052;-54
2024/02/25 05:13:57;;;;;;;2.40;2.20;;;5.50;99.90;;;;;;5041197;28;20017;-53
2024/02/25 05:16:23;;;;;;;3.38;1.98;;;5.60;99.90;;;;;;5040527;28;20048;-53
2024/02/25 05:18:48;;;;;;;2.22;2.03;;;5.60;99.90;;;;;;5042590;28;20490;-53
2024/02/25 05:21:14;;;;;;;3.33;2.70;;;5.60;99.90;;;;;;5057726;28;20021;-49
2024/02/25 05:23:39;;;;;;;2.95;1.80;;;5.60;99.90;;;;;;5042417;28;20401;-54
2024/02/25 05:26:05;;;;;;;2.40;1.88;;;5.70;99.90;;;;;;5041686;28;20029;-48
2024/02/25 05:28:31;;;;;;;2.17;2.03;;;5.70;99.90;;;;;;5042542;28;20026;-48
2024/02/25 05:30:56;;;;;;;1.95;1.80;;;5.70;99.90;;;;;;5057025;28;20029;-54
2024/02/25 05:33:22;;;;;;;2.53;1.95;;;5.70;99.90;;;;;;5039893;28;20025;-51
2024/02/25 05:35:48;;;;;;;2.97;2.38;;;5.80;99.90;;;;;;5056554;28;20017;-53
2024/02/25 05:38:13;;;;;;;2.55;1.90;;;5.90;99.90;;;;;;5056922;28;20026;-56
2024/02/25 05:40:41;;;;;;;3.72;1.80;;;5.80;99.90;;;;;;5041277;28;20048;-48
2024/02/25 05:43:07;;;;;;;2.35;1.92;;;5.90;99.90;;;;;;5040921;28;20084;-52
2024/02/25 05:45:33;;;;;;;3.90;1.90;;;5.90;99.90;;;;;;5041927;28;20056;-49
2024/02/25 05:47:59;;;;;;;2.42;1.77;;;5.90;99.90;;;;;;5040897;28;20033;-50
2024/02/25 05:50:24;;;;;;;5.50;1.80;;;5.90;99.90;;;;;;5056107;28;20096;-49
2024/02/25 05:52:50;;;;;;;2.00;1.90;;;5.80;99.90;;;;;;5041002;28;20502;-56
2024/02/25 05:55:17;;;;;;;2.13;1.67;;;5.90;99.90;;;;;;5056752;28;20111;-54
2024/02/25 05:57:43;;;;;;;5.38;1.92;;;5.90;99.90;;;;;;5040609;28;20109;-53
2024/02/25 06:00:12;;;;;;;1.90;1.80;;;5.90;99.90;;;;;;5040811;28;20446;-54
2024/02/25 06:02:45;;;;;;;2.58;2.38;;;5.90;99.90;;;;;;5041069;28;20021;-51
2024/02/25 06:05:14;;;;;;;2.42;2.10;;;5.90;99.90;;;;;;5040401;28;20029;-54
2024/02/25 06:07:40;;;;;;;2.88;2.47;;;5.80;99.90;;;;;;5040755;28;20025;-53
2024/02/25 06:10:06;;;;;;;3.38;2.45;;;5.90;99.90;;;;;;5038757;28;20033;-54
2024/02/25 06:12:35;;;;;;;2.92;2.67;;;5.90;99.90;;;;;;5055617;28;20030;-52
2024/02/25 06:15:03;;;;;;;5.03;2.45;;;5.90;99.90;;;;;;5041115;28;20025;-52
2024/02/25 06:17:29;;;;;;;2.85;2.55;;;5.90;99.90;;;;;;5055857;28;20508;-51
2024/02/25 06:19:54;;;;;;;2.60;2.40;;;5.90;99.90;;;;;;5039962;28;20098;-49
2024/02/25 06:22:20;;;;;;;4.10;2.25;;;6.00;99.90;;;;;;5040447;28;20036;-49
2024/02/25 06:24:45;;;;;;;3.63;2.58;;;6.00;99.90;;;;;;5041964;28;20037;-52
2024/02/25 06:27:11;;;;;;;3.83;2.42;;;5.90;99.90;;;;;;5042008;28;20025;-50
2024/02/25 06:29:36;;;;;;;3.08;2.35;;;6.00;99.90;;;;;;5042589;28;20033;-50
2024/02/25 06:32:02;;;;;;;3.05;2.28;;;6.00;99.90;;;;;;5042286;28;20021;-53
2024/02/25 06:34:28;;;;;;;3.25;2.95;;;6.00;99.90;;;;;;5042050;28;20018;-54
2024/02/25 06:36:53;;;;;;;2.58;2.38;;;6.00;99.90;;;;;;5042539;28;20112;-50
2024/02/25 06:39:19;;;;;;;4.60;2.47;;;6.00;99.90;;;;;;5057521;28;20022;-49
2024/02/25 06:41:46;;;;;;;2.47;2.28;;;6.00;99.90;;;;;;5041790;28;20400;-54
2024/02/25 06:44:11;;;;;;;5.43;2.40;;;6.00;99.90;;;;;;5041039;28;20067;-51
2024/02/25 06:46:40;;;;;;;4.25;2.28;;;6.10;99.90;;;;;;5040811;28;20416;-53
2024/02/25 06:49:06;;;;;;;3.88;2.30;;;6.10;99.90;;;;;;5040477;28;20128;-50
2024/02/25 06:51:32;;;;;;;6.55;2.42;;;6.10;99.90;;;;;;5039565;28;20493;-49
2024/02/25 06:53:57;;;;;;;3.13;2.20;;;6.10;99.90;;;;;;5039565;28;20021;-54
2024/02/25 06:56:23;;;;;;;2.42;2.22;;;6.00;99.90;;;;;;5040674;28;20029;-52
2024/02/25 06:58:48;;;;;;;2.55;2.30;;;6.00;99.90;;;;;;5040276;28;20033;-51
2024/02/25 07:01:14;;;;;;;2.60;2.30;;;6.00;99.90;;;;;;5040318;28;20017;-53
2024/02/25 07:03:43;;;;;;;3.78;2.78;;;6.10;99.90;;;;;;5039775;28;20064;-51
2024/02/25 07:06:10;;;;;;;4.50;2.20;;;6.20;99.90;;;;;;5039848;28;20439;-53
2024/02/25 07:08:36;;;;;;;2.78;2.20;;;6.20;99.90;;;;;;5055570;28;20397;-50
2024/02/25 07:11:01;;;;;;;5.05;2.72;;;6.20;99.90;;;;;;5040018;28;20366;-51
2024/02/25 07:13:27;;;;;;;4.15;2.30;;;6.10;99.90;;;;;;5054857;28;20040;-54
2024/02/25 07:15:53;;;;;;;2.75;2.55;;;6.20;99.90;;;;;;5039404;28;20021;-52
2024/02/25 07:18:18;;;;;;;3.20;2.17;;;6.30;99.90;;;;;;5038410;28;20021;-51
2024/02/25 07:20:44;;;;;;;3.42;2.60;;;6.30;99.90;;;;;;5038933;28;20048;-54
2024/02/25 07:23:09;;;;;;;8.02;2.63;;;6.30;99.90;;;;;;5039725;28;20099;-53
2024/02/25 07:25:35;;;;;;;3.80;2.20;;;6.30;99.90;;;;;;5039941;28;20029;-50
2024/02/25 07:28:00;;;;;;;7.15;2.92;;;6.40;99.90;;;;;;5055051;28;20021;-52
2024/02/25 07:30:26;;;;;;;2.10;1.80;;;6.40;99.90;;;;;;5039465;28;20025;-54
2024/02/25 07:32:51;;;;;;;3.70;2.13;;;6.50;99.90;;;;;;5039463;28;20080;-53
2024/02/25 07:35:17;;;;;;;2.97;2.30;;;6.50;99.90;;;;;;5037861;28;20026;-53
2024/02/25 07:37:42;;;;;;;1.85;1.75;;;6.60;99.90;;;;;;5054829;28;20071;-52
2024/02/25 07:40:11;;;;;;;4.68;2.78;;;6.70;99.90;;;;;;5037991;28;20033;-51
2024/02/25 07:42:36;;;;;;;2.35;2.10;;;6.70;99.90;;;;;;5055059;28;20092;-52
2024/02/25 07:45:02;;;;;;;3.10;2.08;;;6.90;99.90;;;;;;5038271;28;20053;-52
2024/02/25 07:47:27;;;;;;;4.00;2.10;;;6.90;99.90;;;;;;5037553;28;20086;-51
2024/02/25 07:49:53;;;;;;;2.63;1.98;;;7.00;99.90;;;;;;5056213;22;20121;-58
2024/02/25 07:52:18;;;;;;;4.75;2.60;;;7.10;99.90;;;;;;5067025;28;20036;-56
2024/02/25 07:54:44;;;;;;;2.70;2.20;;;7.20;99.90;;;;;;5059161;28;20024;-52
2024/02/25 07:57:09;;;;;;;3.13;2.50;;;7.30;99.90;;;;;;5071791;28;20035;-56
2024/02/25 07:59:35;;;;;;;5.03;2.40;;;7.40;99.90;;;;;;5056233;28;20049;-57
2024/02/25 08:02:01;;;;;;;3.15;1.88;;;7.40;99.90;;;;;;5031597;28;20087;-59
2024/02/25 08:04:26;;;;;;;3.55;2.13;;;7.40;99.90;;;;;;5031679;28;20396;-56
2024/02/25 08:06:52;;;;;;;4.10;2.42;;;7.40;99.90;;;;;;5031698;28;20035;-53
2024/02/25 08:09:18;;;;;;;2.60;2.05;;;7.30;99.90;;;;;;5031780;28;20033;-51
2024/02/25 08:11:43;;;;;;;2.55;1.80;;;7.30;99.90;;;;;;5030343;28;20428;-51
2024/02/25 08:14:09;;;;;;;2.67;2.00;;;7.30;99.90;;;;;;5031438;28;20072;-50
2024/02/25 08:16:37;;;;;;;1.92;1.83;;;7.20;99.90;;;;;;5031466;28;20021;-55
2024/02/25 08:19:02;;;;;;;2.80;2.10;;;7.10;99.90;;;;;;5031650;28;20014;-52
2024/02/25 08:21:28;;;;;;;2.47;2.05;;;7.10;99.90;;;;;;5031627;28;20044;-56
2024/02/25 08:23:53;;;;;;;2.60;2.10;;;7.10;99.90;;;;;;5031633;28;20389;-56
2024/02/25 08:26:19;;;;;;;3.33;2.08;;;7.20;99.90;;;;;;5031652;28;20022;-53
2024/02/25 08:28:44;;;;;;;4.40;1.90;;;7.20;99.90;;;;;;5033470;28;20026;-52
2024/02/25 08:31:10;;;;;;;3.35;2.20;;;7.20;99.90;;;;;;5034369;28;20021;-55
2024/02/25 08:33:35;;;;;;;5.47;1.92;;;7.20;99.90;;;;;;5035651;28;20039;-53
2024/02/25 08:36:01;;;;;;;4.15;2.20;;;7.30;99.90;;;;;;5035309;28;20474;-57
2024/02/25 08:38:27;;;;;;;3.00;2.15;;;7.40;99.90;;;;;;5035394;28;20030;-55
2024/02/25 08:40:53;;;;;;;5.22;1.75;;;7.40;99.90;;;;;;5036219;28;20052;-51
2024/02/25 08:43:19;;;;;;;2.55;1.80;;;7.50;99.90;;;;;;5035314;28;20037;-57
2024/02/25 08:45:44;;;;;;;3.58;1.85;;;7.60;99.90;;;;;;5035175;28;20021;-53
2024/02/25 08:48:10;;;;;;;3.42;2.42;;;7.70;99.90;;;;;;5035245;28;20307;-55
2024/02/25 08:50:35;;;;;;;2.92;2.63;;;7.80;99.90;;;;;;5035296;28;20029;-56
2024/02/25 08:53:01;;;;;;;1.73;1.60;;;7.90;99.90;;;;;;5035238;28;20022;-56
2024/02/25 08:55:26;;;;;;;2.50;1.83;;;8.00;99.90;;;;;;5035176;28;20037;-55
2024/02/25 08:57:52;;;;;;;2.05;1.85;;;8.20;99.90;;;;;;5034980;28;20025;-56
2024/02/25 09:00:20;;;;;;;3.50;1.83;;;8.30;99.90;;;;;;5035047;28;20025;-55
2024/02/25 09:02:45;;;;;;;2.55;1.70;;;8.30;99.90;;;;;;5034757;28;20028;-54
2024/02/25 09:05:11;;;;;;;5.47;2.30;;;8.30;99.90;;;;;;5034953;28;20033;-56
2024/02/25 09:07:37;;;;;;;2.50;1.42;;;8.10;99.90;;;;;;5042043;28;20083;-52
2024/02/25 09:10:05;;;;;;;1.88;1.60;;;8.10;99.90;;;;;;5046696;28;20025;-53
2024/02/25 09:12:31;;;;;;;2.28;1.17;;;8.10;99.90;;;;;;5054698;28;20047;-55
2024/02/25 09:14:57;;;;;;;3.78;1.70;;;8.00;99.90;;;;;;5054465;28;20444;-55
2024/02/25 09:17:23;;;;;;;5.53;1.45;;;7.90;99.90;;;;;;5052982;28;20037;-52
2024/02/25 09:19:48;;;;;;;1.67;1.52;;;7.90;99.90;;;;;;5053108;28;20021;-49
2024/02/25 09:22:14;;;;;;;2.28;1.10;;;7.90;99.90;;;;;;5054307;28;20037;-54
2024/02/25 09:24:42;;;;;;;1.73;1.30;;;8.00;99.90;;;;;;5053889;28;20080;-56
2024/02/25 09:27:07;;;;;;;1.98;1.63;;;8.10;99.90;;;;;;5051994;28;20033;-57
2024/02/25 09:29:33;;;;;;;1.60;1.50;;;8.10;99.90;;;;;;5053924;28;20033;-57
2024/02/25 09:31:58;;;;;;;2.33;1.45;;;8.20;99.90;;;;;;5053775;28;20043;-54
2024/02/25 09:34:24;;;;;;;2.53;2.28;;;8.50;99.90;;;;;;5053986;28;20029;-50
2024/02/25 09:36:50;;;;;;;6.97;1.55;;;8.60;99.90;;;;;;5054485;28;20358;-54
2024/02/25 09:39:16;;;;;;;2.80;1.15;;;8.70;99.90;;;;;;5053098;28;20480;-54
2024/02/25 09:41:42;;;;;;;1.30;1.20;;;8.70;99.90;;;;;;5052835;28;20023;-50
2024/02/25 09:44:26;;;;;;;2.22;1.58;;;8.70;99.90;;;;;;5053753;28;20021;-53
2024/02/25 09:46:54;;;;;;;2.03;1.55;;;8.60;99.90;;;;;;5051827;28;20017;-52
2024/02/25 09:49:20;;;;;;;4.85;1.83;;;8.60;99.90;;;;;;5053506;28;20100;-54
2024/02/25 09:51:49;;;;;;;3.25;2.03;;;8.50;99.90;;;;;;5053767;28;20536;-54
2024/02/25 09:54:15;;;;;;;2.92;2.05;;;8.50;99.90;;;;;;5053697;28;20075;-52
2024/02/25 09:56:45;;;;;;;3.75;1.90;;;8.50;99.90;;;;;;5051488;28;20035;-50
2024/02/25 09:59:11;;;;;;;2.20;2.00;;;8.70;99.90;;;;;;5053706;28;20071;-52
2024/02/25 10:01:36;;;;;;;2.30;1.95;;;9.00;99.90;;;;;;5053987;28;20392;-55
2024/02/25 10:04:02;;;;;;;3.30;1.70;;;9.10;99.90;;;;;;5053291;28;20111;-52
2024/02/25 10:06:35;;;;;;;2.42;2.15;;;9.20;99.90;;;;;;5053199;28;20032;-54
2024/02/25 10:09:01;;;;;;;2.33;1.50;;;9.20;99.90;;;;;;5053767;28;20025;-53
2024/02/25 10:11:28;;;;;;;3.28;2.10;;;9.30;99.90;;;;;;5052759;28;20032;-55
2024/02/25 10:13:53;;;;;;;3.05;2.22;;;9.30;99.90;;;;;;5053335;28;20388;-55
2024/02/25 10:16:20;;;;;;;2.13;1.92;;;9.30;99.90;;;;;;5052738;28;20029;-53
2024/02/25 10:18:48;;;;;;;2.58;2.00;;;9.30;99.90;;;;;;5054790;28;20028;-52
2024/02/25 10:21:15;;;;;;;2.25;1.63;;;9.30;99.90;;;;;;5053485;28;20573;-58
2024/02/25 10:23:40;;;;;;;1.63;1.52;;;9.20;99.90;;;;;;5054238;28;20033;-59
2024/02/25 10:26:18;;;;;;;1.73;1.45;;;9.20;99.90;;;;;;5052317;28;20662;-54
2024/02/25 10:28:43;;;;;;;2.88;1.60;;;9.20;99.90;;;;;;5053587;28;20400;-53
2024/02/25 10:31:11;;;;;;;2.05;1.85;;;9.20;99.90;;;;;;5055473;28;20035;-52
2024/02/25 10:33:38;;;;;;;1.98;1.88;;;9.10;99.90;;;;;;5055733;28;20389;-54
2024/02/25 10:36:13;;;;;;;3.35;1.38;;;9.00;99.90;;;;;;5054465;28;20092;-49
2024/02/25 10:38:40;;;;;;;1.42;1.30;;;9.10;99.90;;;;;;5054158;28;20021;-51
2024/02/25 10:41:07;;;;;;;1.60;1.50;;;9.10;99.90;;;;;;5052964;28;20123;-52
2024/02/25 10:43:34;;;;;;;1.73;1.52;;;9.20;99.90;;;;;;5053286;28;20059;-53
2024/02/25 10:46:04;;;;;;;2.40;1.55;;;9.30;99.90;;;;;;5052579;28;20580;-56
2024/02/25 10:48:31;;;;;;;1.27;1.17;;;9.30;99.90;;;;;;5053193;28;20112;-57
2024/02/25 10:50:58;;;;;;;1.00;1.00;;;9.40;99.90;;;;;;5053172;28;20259;-55
2024/02/25 10:53:24;;;;;;;1.08;1.08;;;9.40;99.90;;;;;;5050854;28;20025;-54
2024/02/25 10:55:52;;;;;;;1.25;1.13;;;9.50;99.90;;;;;;5052157;28;20024;-55
2024/02/25 10:58:19;;;;;;;1.48;1.30;;;9.60;99.90;;;;;;5052566;28;20170;-51
2024/02/25 11:00:47;;;;;;;1.20;1.02;;;9.70;99.90;;;;;;5052171;28;20396;-52
2024/02/25 11:03:13;;;;;;;1.65;1.20;;;9.80;99.90;;;;;;5052489;28;20035;-54
2024/02/25 11:05:41;;;;;;;2.55;2.08;;;9.80;99.90;;;;;;5051374;28;20481;-50
2024/02/25 11:08:10;;;;;;;3.60;1.15;;;9.90;99.90;;;;;;5051613;28;20417;-54
2024/02/25 11:10:40;;;;;;;1.35;1.15;;;9.80;99.90;;;;;;5050874;28;20073;-51
2024/02/25 11:13:11;;;;;;;21.40;13.15;;;9.70;99.90;;;;;;5050245;28;20502;-55
2024/02/25 11:15:37;;;;;;;7.20;4.70;;;9.80;99.90;;;;;;5052328;28;20052;-54
2024/02/25 11:18:05;;;;;;;2.95;1.90;;;10.00;99.90;;;;;;5051049;28;20017;-55
2024/02/25 11:20:33;;;;;;;1.80;1.30;;;10.00;99.90;;;;;;5052058;28;20017;-54
2024/02/25 11:22:59;;;;;;;1.58;1.02;;;10.10;99.90;;;;;;5052158;28;20163;-56
2024/02/25 11:25:30;;;;;;;2.08;1.30;;;10.10;99.90;;;;;;5052512;28;20065;-56
2024/02/25 11:28:13;;;;;;;1.63;1.17;;;10.10;99.90;;;;;;5050155;28;20025;-57
2024/02/25 11:30:44;;;;;;;1.60;1.50;;;10.00;99.90;;;;;;5052906;28;20032;-55
2024/02/25 11:33:33;;;;;;;1.73;1.63;;;10.00;99.90;;;;;;5033510;28;20033;-55
2024/02/25 11:35:59;;;;;;;2.80;1.48;;;9.90;99.90;;;;;;5033368;28;20045;-52
2024/02/25 11:38:28;;;;;;;1.50;1.40;;;9.90;99.90;;;;;;5031425;28;20362;-53
2024/02/25 11:40:57;;;;;;;3.22;1.10;;;9.90;99.90;;;;;;5032715;28;20026;-53
2024/02/25 11:43:24;;;;;;;1.75;1.25;;;9.90;99.90;;;;;;5033732;28;20041;-53
2024/02/25 11:45:50;;;;;;;1.67;1.40;;;9.80;99.90;;;;;;5033959;28;20026;-54
2024/02/25 11:48:15;;;;;;;2.55;1.50;;;9.70;99.90;;;;;;5053258;28;20315;-57
2024/02/25 11:50:42;;;;;;;1.42;1.13;;;9.70;99.90;;;;;;5053380;28;20227;-52
2024/02/25 11:53:08;;;;;;;1.45;1.17;;;9.70;99.90;;;;;;5051940;28;20108;-54
2024/02/25 11:55:34;;;;;;;2.05;1.33;;;9.80;99.90;;;;;;5052281;28;20048;-51
2024/02/25 11:58:00;;;;;;;1.80;1.23;;;9.90;99.90;;;;;;5052540;28;20435;-54
2024/02/25 12:00:25;;;;;;;1.77;1.30;;;9.90;99.90;;;;;;5052141;28;20092;-51
2024/02/25 12:02:51;;;;;;;1.30;1.02;;;9.90;99.90;;;;;;5053029;28;20021;-51
2024/02/25 12:05:18;;;;;;;1.77;1.15;;;10.00;99.90;;;;;;5055937;28;20029;-53
2024/02/25 12:07:57;;;;;;;2.03;1.00;;;10.20;99.90;;;;;;5058301;28;20033;-55
2024/02/25 12:10:25;;;;;;;1.80;1.20;;;10.30;99.90;;;;;;5056559;28;20096;-56
2024/02/25 12:12:51;;;;;;;1.08;0.85;;;10.40;99.90;;;;;;5053785;28;20044;-57
2024/02/25 12:15:26;;;;;;;2.53;0.88;;;10.40;99.90;;;;;;5051087;28;20055;-57
2024/02/25 12:17:52;;;;;;;1.30;1.10;;;10.40;99.90;;;;;;5051123;28;20017;-54
2024/02/25 12:20:19;;;;;;;0.55;0.55;;;10.40;99.90;;;;;;5050139;28;20156;-48
2024/02/25 12:22:45;;;;;;;0.68;0.68;;;10.30;99.90;;;;;;5053126;28;20024;-58
2024/02/25 12:25:17;;;;;;;1.63;0.80;;;10.20;99.90;;;;;;5055472;28;20037;-58
2024/02/25 12:27:44;;;;;;;3.35;0.90;;;10.20;99.90;;;;;;5056008;28;20122;-55
2024/02/25 12:30:13;;;;;;;1.15;0.70;;;10.20;99.90;;;;;;5058438;28;20088;-54
2024/02/25 12:32:39;;;;;;;0.70;0.70;;;10.20;99.90;;;;;;5059166;28;20029;-55
2024/02/25 12:35:06;;;;;;;0.73;0.60;;;10.20;99.90;;;;;;5055230;28;20496;-56
2024/02/25 12:37:31;;;;;;;3.40;0.63;;;10.30;99.90;;;;;;5054058;28;20021;-53
2024/02/25 12:39:57;;;;;;;0.50;0.50;;;10.40;99.90;;;;;;5056368;28;20025;-55
2024/02/25 12:42:23;;;;;;;1.50;0.70;;;10.40;99.90;;;;;;5051778;28;20037;-55
2024/02/25 12:44:49;;;;;;;0.95;0.60;;;10.40;99.90;;;;;;5058640;28;20103;-56
2024/02/25 12:47:15;;;;;;;0.47;0.40;;;10.50;99.90;;;;;;5057458;28;20025;-51
2024/02/25 12:49:40;;;;;;;1.02;0.80;;;10.50;99.90;;;;;;5059336;28;20037;-51
2024/02/25 12:52:06;;;;;;;0.60;0.60;;;10.40;99.90;;;;;;5061048;28;20029;-55